createdAt,value
2023-03-13T00:00:21.911Z,94254
2023-03-13T00:03:47.109Z,94265
2023-03-13T00:07:12.302Z,94254
2023-03-13T00:10:37.481Z,94251
2023-03-13T00:14:02.683Z,94252
2023-03-13T00:17:27.850Z,94250
2023-03-13T00:20:53.047Z,94247
2023-03-13T00:24:18.243Z,94238
2023-03-13T00:27:43.409Z,94241
2023-03-13T00:31:08.674Z,94229
2023-03-13T00:34:33.786Z,94226
2023-03-13T00:37:58.976Z,94228
2023-03-13T00:41:24.178Z,94222
2023-03-13T00:44:49.339Z,94212
2023-03-13T00:48:14.561Z,94206
2023-03-13T00:51:39.727Z,94212
2023-03-13T00:55:04.892Z,94214
2023-03-13T00:58:30.075Z,94212
2023-03-13T01:01:55.305Z,94207
2023-03-13T01:05:20.494Z,94203
2023-03-13T01:08:45.684Z,94201
2023-03-13T01:12:10.848Z,94193
2023-03-13T01:15:36.094Z,94169
2023-03-13T01:19:01.270Z,94175
2023-03-13T01:22:26.485Z,94162
2023-03-13T01:25:51.642Z,94163
2023-03-13T01:29:16.829Z,94151
2023-03-13T01:32:42.092Z,94158
2023-03-13T01:36:07.190Z,94158
2023-03-13T01:39:32.399Z,94157
2023-03-13T01:42:57.574Z,94166
2023-03-13T01:46:22.800Z,94149
2023-03-13T01:49:47.952Z,94150
2023-03-13T01:53:13.132Z,94138
2023-03-13T01:56:38.324Z,94141
2023-03-13T02:00:03.514Z,94136
2023-03-13T02:03:28.670Z,94130
2023-03-13T02:06:53.827Z,94119
2023-03-13T02:10:19.034Z,94124
2023-03-13T02:13:44.228Z,94115
2023-03-13T02:17:09.375Z,94120
2023-03-13T02:20:34.563Z,94105
2023-03-13T02:23:59.750Z,94094
2023-03-13T02:27:24.919Z,94087
2023-03-13T02:30:50.130Z,94081
2023-03-13T02:34:15.299Z,94076
2023-03-13T02:37:40.488Z,94077
2023-03-13T02:41:05.661Z,94068
2023-03-13T02:44:30.860Z,94063
2023-03-13T02:47:56.088Z,94070
2023-03-13T02:51:21.251Z,94049
2023-03-13T02:54:46.486Z,94047
2023-03-13T02:58:11.693Z,94045
2023-03-13T03:01:36.888Z,94039
2023-03-13T03:05:02.133Z,94038
2023-03-13T03:08:27.299Z,94050
2023-03-13T03:11:52.498Z,94048
2023-03-13T03:15:17.682Z,94041
2023-03-13T03:18:42.905Z,94054
2023-03-13T03:22:08.082Z,94048
2023-03-13T03:25:33.248Z,94050
2023-03-13T03:28:58.462Z,94048
2023-03-13T03:32:24.389Z,94055
2023-03-13T03:35:49.551Z,94052
2023-03-13T03:39:14.739Z,94042
2023-03-13T03:42:39.890Z,94029
2023-03-13T03:46:05.111Z,94042
2023-03-13T03:49:30.268Z,94032
2023-03-13T03:52:55.450Z,94027
2023-03-13T03:56:20.645Z,94019
2023-03-13T03:59:45.816Z,94012
2023-03-13T04:03:11.019Z,94003
2023-03-13T04:06:36.171Z,93997
2023-03-13T04:10:01.370Z,93985
2023-03-13T04:13:26.569Z,93978
2023-03-13T04:16:51.767Z,93978
2023-03-13T04:20:16.952Z,93975
2023-03-13T04:23:42.149Z,93972
2023-03-13T04:27:07.335Z,93970
2023-03-13T04:30:32.678Z,93964
2023-03-13T04:33:57.838Z,93943
2023-03-13T04:37:23.120Z,93934
2023-03-13T04:40:48.313Z,93935
2023-03-13T04:44:13.517Z,93935
2023-03-13T04:47:38.761Z,93937
2023-03-13T04:51:03.881Z,93936
2023-03-13T04:54:29.099Z,93925
2023-03-13T04:57:54.307Z,93925
2023-03-13T05:01:19.535Z,93913
2023-03-13T05:04:44.752Z,93916
2023-03-13T05:08:09.895Z,93909
2023-03-13T05:11:35.104Z,93909
2023-03-13T05:15:00.817Z,93896
2023-03-13T05:18:26.031Z,93879
2023-03-13T05:21:51.284Z,93880
2023-03-13T05:25:16.435Z,93880
2023-03-13T05:28:41.639Z,93869
2023-03-13T05:32:06.843Z,93863
2023-03-13T05:35:32.098Z,93848
2023-03-13T05:38:57.267Z,93833
2023-03-13T05:42:22.437Z,93830
2023-03-13T05:45:47.669Z,93824
2023-03-13T05:49:12.865Z,93817
2023-03-13T05:52:38.054Z,93821
2023-03-13T05:56:03.270Z,93816
2023-03-13T05:59:28.473Z,93806
2023-03-13T06:02:53.667Z,93804
2023-03-13T06:06:18.850Z,93802
2023-03-13T06:09:44.048Z,93801
2023-03-13T06:13:19.228Z,93808
2023-03-13T06:16:34.622Z,93806
2023-03-13T06:19:59.652Z,93803
2023-03-13T06:23:24.883Z,93804
2023-03-13T06:26:50.065Z,93815
2023-03-13T06:30:15.285Z,93811
2023-03-13T06:33:40.493Z,93791
2023-03-13T06:37:05.698Z,93782
2023-03-13T06:40:30.911Z,93784
2023-03-13T06:43:56.131Z,93795
2023-03-13T06:47:21.429Z,93775
2023-03-13T06:50:46.568Z,93777
2023-03-13T06:54:11.764Z,93759
2023-03-13T06:57:36.940Z,93737
2023-03-13T07:01:02.167Z,93723
2023-03-13T07:04:27.384Z,93695
2023-03-13T07:07:52.576Z,93712
2023-03-13T07:11:17.762Z,93728
2023-03-13T07:14:43.060Z,93724
2023-03-13T07:18:08.285Z,93714
2023-03-13T07:21:33.566Z,93715
2023-03-13T07:24:58.738Z,93729
2023-03-13T07:28:23.958Z,93717
2023-03-13T07:31:49.190Z,93743
2023-03-13T07:35:14.317Z,93753
2023-03-13T07:38:39.555Z,93736
2023-03-13T07:42:04.720Z,93736
2023-03-13T07:45:29.932Z,93745
2023-03-13T07:48:55.104Z,93726
2023-03-13T07:52:20.283Z,93725
2023-03-13T07:55:45.510Z,93722
2023-03-13T07:59:10.669Z,93714
2023-03-13T08:02:35.910Z,93730
2023-03-13T08:06:01.017Z,93719
2023-03-13T08:09:26.215Z,93728
2023-03-13T08:12:51.416Z,93729
2023-03-13T08:16:16.604Z,93719
2023-03-13T08:19:41.755Z,93721
2023-03-13T08:23:06.934Z,93729
2023-03-13T08:26:32.117Z,93733
2023-03-13T08:29:57.318Z,93729
2023-03-13T08:33:22.497Z,93748
2023-03-13T08:36:47.684Z,93742
2023-03-13T08:40:12.865Z,93741
2023-03-13T08:43:38.067Z,93752
2023-03-13T08:47:03.278Z,93763
2023-03-13T08:50:28.434Z,93746
2023-03-13T08:53:53.619Z,93734
2023-03-13T08:57:18.815Z,93757
2023-03-13T09:00:44.010Z,93759
2023-03-13T09:04:09.354Z,93762
2023-03-13T09:07:34.408Z,93754
2023-03-13T09:10:59.629Z,93763
2023-03-13T09:14:24.843Z,93742
2023-03-13T09:17:50.085Z,93744
2023-03-13T09:21:15.359Z,93761
2023-03-13T09:24:40.525Z,93755
2023-03-13T09:28:05.718Z,93760
2023-03-13T09:31:31.084Z,93748
2023-03-13T09:34:56.204Z,93717
2023-03-13T09:38:21.539Z,93714
2023-03-13T09:41:46.577Z,93717
2023-03-13T09:45:11.777Z,93720
2023-03-13T09:48:36.987Z,93713
2023-03-13T09:52:02.160Z,93701
2023-03-13T09:55:27.376Z,93683
2023-03-13T09:58:52.539Z,93688
2023-03-13T10:02:17.746Z,93690
2023-03-13T10:05:42.938Z,93684
2023-03-13T10:09:08.203Z,93668
2023-03-13T10:12:33.422Z,93657
2023-03-13T10:15:58.650Z,93629
2023-03-13T10:19:23.819Z,93636
2023-03-13T10:22:49.027Z,93645
2023-03-13T10:26:14.205Z,93642
2023-03-13T10:29:39.400Z,93641
2023-03-13T10:33:04.577Z,93660
2023-03-13T10:36:29.758Z,93657
2023-03-13T10:39:54.958Z,93670
2023-03-13T10:43:22.272Z,93687
2023-03-13T10:46:45.440Z,93696
2023-03-13T10:50:10.553Z,93702
2023-03-13T10:53:35.759Z,93710
2023-03-13T10:57:00.950Z,93715
2023-03-13T11:00:26.188Z,93730
2023-03-13T11:03:51.592Z,93712
2023-03-13T11:07:16.650Z,93725
2023-03-13T11:10:41.868Z,93720
2023-03-13T11:14:07.063Z,93714
2023-03-13T11:17:32.265Z,93710
2023-03-13T11:20:59.167Z,93718
2023-03-13T11:24:22.647Z,93713
2023-03-13T11:27:47.839Z,93702
2023-03-13T11:31:13.057Z,93698
2023-03-13T11:34:38.270Z,93696
2023-03-13T11:38:03.641Z,93700
2023-03-13T11:41:28.700Z,93712
2023-03-13T11:44:53.961Z,93719
2023-03-13T11:48:19.177Z,93715
2023-03-13T11:51:44.390Z,93720
2023-03-13T11:55:09.728Z,93709
2023-03-13T11:58:34.825Z,93702
2023-03-13T12:02:00.035Z,93711
2023-03-13T12:05:25.307Z,93709
2023-03-13T12:08:50.434Z,93707
2023-03-13T12:12:15.654Z,93701
2023-03-13T12:15:40.854Z,93700
2023-03-13T12:19:06.075Z,93691
2023-03-13T12:22:31.309Z,93690
2023-03-13T12:25:56.509Z,93679
2023-03-13T12:29:21.749Z,93680
2023-03-13T12:32:46.977Z,93677
2023-03-13T12:36:12.232Z,93666
2023-03-13T12:39:37.362Z,93657
2023-03-13T12:43:02.557Z,93662
2023-03-13T12:46:27.824Z,93663
2023-03-13T12:49:52.977Z,93648
2023-03-13T12:53:20.821Z,93647
2023-03-13T12:56:43.390Z,93643
2023-03-13T13:00:08.641Z,93634
2023-03-13T13:03:33.873Z,93639
2023-03-13T13:06:59.036Z,93638
2023-03-13T13:10:24.247Z,93650
2023-03-13T13:13:49.445Z,93644
2023-03-13T13:17:16.312Z,93636
2023-03-13T13:20:39.930Z,93634
2023-03-13T13:24:05.131Z,93629
2023-03-13T13:27:30.345Z,93630
2023-03-13T13:30:56.215Z,93612
2023-03-13T13:34:20.771Z,93602
2023-03-13T13:37:48.157Z,93584
2023-03-13T13:41:11.223Z,93588
2023-03-13T13:44:36.473Z,93577
2023-03-13T13:48:01.672Z,93576
2023-03-13T13:51:26.889Z,93576
2023-03-13T13:54:52.133Z,93569
2023-03-13T13:58:17.241Z,93559
2023-03-13T14:01:42.503Z,93557
2023-03-13T14:05:07.726Z,93546
2023-03-13T14:08:32.894Z,93547
2023-03-13T14:11:58.118Z,93548
2023-03-13T14:15:23.675Z,93550
2023-03-13T14:18:48.954Z,93546
2023-03-13T14:22:15.159Z,93541
2023-03-13T14:25:40.433Z,93525
2023-03-13T14:29:07.955Z,93519
2023-03-13T15:06:02.364Z,93447
2023-03-13T15:09:27.541Z,93450
2023-03-13T15:12:52.777Z,93413
2023-03-13T15:16:17.941Z,93421
2023-03-13T15:19:43.138Z,93407
2023-03-13T15:23:08.349Z,93397
2023-03-13T15:26:33.529Z,93393
2023-03-13T15:29:58.742Z,93381
2023-03-13T15:33:23.964Z,93365
2023-03-13T15:36:49.151Z,93353
2023-03-13T15:40:14.436Z,93350
2023-03-13T15:43:39.631Z,93340
2023-03-13T15:47:04.882Z,93332
2023-03-13T15:50:30.122Z,93326
2023-03-13T15:53:55.409Z,93322
2023-03-13T15:57:20.705Z,93317
2023-03-13T16:00:45.837Z,93325
2023-03-13T16:04:11.054Z,93327
2023-03-13T16:07:36.246Z,93319
2023-03-13T16:11:01.480Z,93318
2023-03-13T16:14:26.726Z,93320
2023-03-13T16:17:51.933Z,93315
2023-03-13T16:21:17.163Z,93306
2023-03-13T16:24:42.443Z,93309
2023-03-13T16:28:07.631Z,93308
2023-03-13T16:31:32.935Z,93303
2023-03-13T16:34:58.079Z,93305
2023-03-13T16:38:23.310Z,93284
2023-03-13T16:41:48.565Z,93270
2023-03-13T16:45:13.798Z,93260
2023-03-13T16:48:39.414Z,93243
2023-03-13T16:52:04.594Z,93241
2023-03-13T16:55:29.887Z,93240
2023-03-13T16:58:55.167Z,93234
2023-03-13T17:02:20.494Z,93251
2023-03-13T17:05:45.707Z,93259
2023-03-13T17:09:10.869Z,93262
2023-03-13T17:12:36.826Z,93247
2023-03-13T17:16:02.123Z,93241
2023-03-13T17:19:27.341Z,93224
2023-03-13T17:22:52.598Z,93229
2023-03-13T17:26:17.895Z,93225
2023-03-13T17:29:43.138Z,93227
2023-03-13T17:33:08.328Z,93225
2023-03-13T17:36:33.559Z,93225
2023-03-13T17:39:58.840Z,93222
2023-03-13T17:43:23.971Z,93229
2023-03-13T17:46:49.292Z,93238
2023-03-13T17:50:14.465Z,93231
2023-03-13T17:53:39.689Z,93254
2023-03-13T17:57:04.931Z,93283
2023-03-13T18:00:30.883Z,93384
